logo
App data

East India Company

In East India Company, players will enjoy building the World's most powerful trading empire & engaging in vigorous battles in both single player & multiplayer modes, all within a breathtaking cinematic game environment.
Store | Hub | SteamDB | Site
Developer: Nitro Games Publisher: Nitro Games
Genre: Strategy
Languages: English, French, German
Tags: Strategy (39), Historical (8), Economy (8), Pirates (5), Trading (5), Naval (5)
Category: Single-player, Multi-player
Release date: Jul 31, 2009
Price: $9.99
Old userscore: 51% Metascore: 67%
Owners: 50,000 .. 100,000
Followers: 501
Peak concurrent players yesterday: 5
Playtime total: 00:17 (average) 00:17 (median)

Steam Spy is still in beta, so expect major bugs.

Owners data:

Access restricted.

This feature is only available to users with special access rights. Sorry.

If you want to proceed, you need to register or log in first and then back Steam Spy on Patreon. Look for Indie or Pro pledge.

Don't forget to use the same email as on Steam Spy!

Audience in 2 weeks:

Access restricted.

This feature is only available to users with special access rights. Sorry.

If you want to proceed, you need to register or log in first and then back Steam Spy on Patreon. Look for Indie or Pro pledge.

Don't forget to use the same email as on Steam Spy!

Peak daily concurrent players:

CCU data courtesy of SteamDB. Used with permission.

Hourly concurrent players:

Daily Twitch stats:

Hourly Twitch stats:

Followers over time

Access restricted.

This feature is only available to users with special access rights. Sorry.

If you want to proceed, you need to register or log in first and then back Steam Spy on Patreon. Look for Indie or Pro pledge.

Don't forget to use the same email as on Steam Spy!

Views for top 50 videos on YouTube for this game:

Games similar to this one:

# Game Release date
Price
Score rank
(Userscore / Metascore)
Owners
Players
Playtime (Median)
1 Viking: Battle for Asgard Oct 17, 2012 $14.99N/A (N/A)1,000,000 .. 2,000,0000%00:00 (00:00)
2 Ground Control Anthology Jul 8, 2015 $4.99N/A (N/A/86%)20,000 .. 50,0000%00:00 (00:00)
3 Conflict Desert Storm May 28, 2012 $6.99N/A (N/A/56%)50,000 .. 100,0000%00:00 (00:00)
4 Ground Control II: Operation Exodus Jul 8, 2015 $4.99N/A (N/A/80%)20,000 .. 50,0000%00:00 (00:00)
5 Galactic Civilizations I: Ultimate Edition Aug 14, 2012 $9.99N/A (N/A/83%)100,000 .. 200,0000%00:00 (00:00)
6 MoonBase Commander Feb 6, 2014 $5.99N/A (N/A/77%)20,000 .. 50,0000%00:00 (00:00)
7 Tiny Troopers Aug 24, 2012 $4.99N/A (N/A/57%)100,000 .. 200,0000%00:00 (00:00)
8 Silent Storm Gold Edition Oct 2, 2013 $9.99N/A (N/A/83%)200,000 .. 500,0000%00:00 (00:00)
9 Sang-Froid - Tales of Werewolves Apr 5, 2013 FreeN/A (N/A/79%)200,000 .. 500,0000%00:00 (00:00)
10 Void Destroyer Jan 20, 2015 $9.99N/A (N/A)50,000 .. 100,0000%00:00 (00:00)
11 Eador: Genesis Oct 14, 2013 $5.99N/A (N/A)50,000 .. 100,0000%00:00 (00:00)
12 Cubemen Mar 16, 2012 $3.99N/A (N/A/74%)100,000 .. 200,0000%00:00 (00:00)
13 UFO: Afterlight Jan 6, 2014 $6.99N/A (N/A/71%)200,000 .. 500,0000%00:00 (00:00)
14 Arena Wars 2 Oct 12, 2012 $3.99N/A (N/A)50,000 .. 100,0000%00:00 (00:00)
15 Skyward Collapse May 23, 2013 $4.99N/A (N/A/64%)100,000 .. 200,0000%00:00 (00:00)
16 Tryst Sep 14, 2012 $14.99N/A (N/A/50%)0 .. 20,0000%00:00 (00:00)
17 Earth 2140 Nov 15, 2013 $4.99N/A (N/A)200,000 .. 500,0000%00:00 (00:00)
18 Perimeter: Emperor's Testament May 22, 2014 $3.99N/A (N/A/72%)20,000 .. 50,0000%00:00 (00:00)
19 The Nightmare Cooperative Jul 16, 2014 $4.99N/A (N/A)50,000 .. 100,0000%00:00 (00:00)
20 Perimeter Apr 3, 2014 $3.99N/A (N/A/77%)20,000 .. 50,0000%00:00 (00:00)
21 Khet 2.0 Oct 1, 2014 $9.99N/A (N/A)50,000 .. 100,0000%00:00 (00:00)
22 UFO: Aftershock Apr 16, 2014 $3.99N/A (N/A)100,000 .. 200,0000%00:00 (00:00)
23 Reprisal Universe Sep 15, 2014 $6.99N/A (N/A)20,000 .. 50,0000%00:00 (00:00)
24 Marauder Apr 4, 2014 $9.99N/A (N/A)50,000 .. 100,0000%00:00 (00:00)
25 Gods vs Humans Oct 10, 2014 $4.99N/A (N/A)20,000 .. 50,0000%00:00 (00:00)
26 Evolution RTS Apr 7, 2014 FreeN/A (N/A)100,000 .. 200,0000%00:00 (00:00)
27 Fritz for Fun 13 Aug 12, 2013 $19.99N/A (N/A)0 .. 20,0000%00:00 (00:00)
28 Haegemonia: The Solon Heritage May 1, 2014 $4.99N/A (N/A)20,000 .. 50,0000%00:00 (00:00)
29 Desperados: Wanted Dead or Alive Nov 20, 2013 $4.99N/A (N/A/78%)100,000 .. 200,0000%00:00 (00:00)
30 Rooks Keep Dec 5, 2014 $7.99N/A (N/A)0 .. 20,0000%00:00 (00:00)
31 Praetorians Apr 11, 2014 $1.49N/A (N/A/78%)50,000 .. 100,0000%00:00 (00:00)
32 Rush for Glory Jun 16, 2014 $14.99N/A (N/A)20,000 .. 50,0000%00:00 (00:00)
33 US and THEM Mar 18, 2014 $2.99N/A (N/A)20,000 .. 50,0000%00:00 (00:00)
34 War in a Box: Paper Tanks Jul 4, 2014 $4.99N/A (N/A)50,000 .. 100,0000%00:00 (00:00)
35 Battlestations: Midway Mar 15, 2007 $6.99N/A (N/A/76%)200,000 .. 500,0000%00:00 (00:00)
36 Men of War: Red Tide Nov 1, 2009 $4.99N/A (N/A/77%)200,000 .. 500,0000%00:00 (00:00)
37 Two Worlds II Castle Defense Jun 14, 2011 $9.99N/A (N/A)200,000 .. 500,0000%00:00 (00:00)
38 Civilization IV: Warlords Apr 6, 2007 $4.99N/A (N/A/84%)1,000,000 .. 2,000,0000%00:00 (00:00)
39 X-COM: Apocalypse Sep 4, 2008 $4.99N/A (N/A)500,000 .. 1,000,0000%00:00 (00:00)
40 Full Spectrum Warrior: Ten Hammers Jul 17, 2007 $9.99N/A (N/A/70%)100,000 .. 200,0000%00:00 (00:00)
41 X-COM: Interceptor Sep 4, 2008 $4.99N/A (N/A)200,000 .. 500,0000%00:00 (00:00)
42 Rome: Total War - Alexander Aug 28, 2007 $12.99N/A (N/A/79%)500,000 .. 1,000,0000%00:00 (00:00)
43 X-COM: Enforcer Sep 4, 2008 $4.99N/A (N/A/65%)500,000 .. 1,000,0000%00:00 (00:00)
44 Cossacks: Art of War Aug 26, 2011 $4.99N/A (N/A)100,000 .. 200,0000%00:00 (00:00)
45 Warhammer 40,000: Dawn of War – Winter Assault Aug 7, 2007 $12.99N/A (N/A)500,000 .. 1,000,0000%00:00 (00:00)
46 Cossacks: European Wars Aug 26, 2011 $4.99N/A (N/A/74%)100,000 .. 200,0000%00:00 (00:00)
47 Darwinia Jul 14, 2005 $9.99N/A (N/A/84%)200,000 .. 500,0000%00:00 (00:00)
48 Cossacks II: Battle for Europe Aug 26, 2011 $4.99N/A (N/A/69%)100,000 .. 200,0000%00:00 (00:00)
49 Dangerous Waters Feb 7, 2006 $2.99N/A (N/A/82%)50,000 .. 100,0000%00:00 (00:00)
50 Commandos: Beyond the Call of Duty Mar 15, 2007 $4.99N/A (N/A)500,000 .. 1,000,0000%00:00 (00:00)
51 Space Empires IV Deluxe Feb 7, 2006 $9.99N/A (N/A/79%)50,000 .. 100,0000%00:00 (00:00)
52 UFHO2 Jun 2, 2015 FreeN/A (N/A)20,000 .. 50,0000%00:00 (00:00)
53 Cluck Yegger in Escape From The Planet of The Poultroid Nov 9, 2015 $2.99N/A (N/A)0 .. 20,0000%00:00 (00:00)
54 World War I Apr 9, 2015 $4.99N/A (N/A)50,000 .. 100,0000%00:00 (00:00)
55 Cosmic Trip May 24, 2017 $19.99N/A (N/A)20,000 .. 50,00033.33%00:17 (00:08)
56 Wyrmsun May 22, 2015 FreeN/A (N/A)20,000 .. 50,0000%00:00 (00:00)
57 Quar: Battle for Gate 18 Apr 4, 2016 $19.99N/A (N/A)0 .. 20,0000%00:00 (00:00)
58 Nomad Fleet Jul 14, 2015 $4.99N/A (N/A)20,000 .. 50,0000%00:00 (00:00)
59 Legends of Callasia Jun 10, 2016 $14.99N/A (N/A)50,000 .. 100,0000%00:00 (00:00)
60 The Fleets of Sol Apr 1, 2016 N/AN/A (N/A)0 .. 20,0000%00:00 (00:00)
61 Crown and Council Jan 27, 2017 FreeN/A (N/A)100,000 .. 200,0000%00:00 (00:00)
62 Rise: Battle Lines Nov 17, 2015 N/AN/A (N/A)0 .. 20,0000%00:00 (00:00)
63 Survivor Squad: Gauntlets Nov 16, 2015 $4.99N/A (N/A)20,000 .. 50,0000%00:00 (00:00)
64 The Seven Years War (1756-1763) Oct 30, 2015 $19.99N/A (N/A)20,000 .. 50,0000%00:00 (00:00)
65 Seven Kingdoms 2 HD Feb 4, 2015 $9.99N/A (N/A)50,000 .. 100,0000%00:00 (00:00)
66 Pang Adventures Apr 18, 2016 $9.99N/A (N/A)20,000 .. 50,0000%00:00 (00:00)
67 SHOGUN: Total War - Collection Jun 25, 2015 $9.99N/A (N/A)50,000 .. 100,0000%00:00 (00:00)
68 Mars 2030 Mar 11, 2016 $4.99N/A (N/A)0 .. 20,0000%00:00 (00:00)
69 ROD: Revolt Of Defense Aug 12, 2016 $0.99N/A (N/A)20,000 .. 50,0000%00:00 (00:00)
70 Honey Rose: Underdog Fighter Extraordinaire Sep 29, 2016 FreeN/A (N/A)0 .. 20,0000%00:00 (00:00)
71 Lazerbait Oct 14, 2016 FreeN/A (N/A)50,000 .. 100,0000%00:00 (00:00)
72 Children of Orc Dec 20, 2016 FreeN/A (N/A)0 .. 20,0000%00:00 (00:00)
73 Gunman Taco Truck Jan 28, 2017 $2.99N/A (N/A)0 .. 20,0000%00:00 (00:00)
74 Sudden Strike 3 Dec 7, 2007 $5.99N/A (N/A)20,000 .. 50,0000%00:00 (00:00)
75 Cthulhu Realms Jul 1, 2016 N/AN/A (N/A)50,000 .. 100,0000%00:00 (00:00)
76 Steam 360 Video Player May 10, 2017 FreeN/A (N/A)100,000 .. 200,0000%00:00 (00:00)
77 Quarantine Feb 9, 2017 $9.99N/A (N/A)0 .. 20,0000%00:00 (00:00)
78 Blight of the Immortals Oct 25, 2016 FreeN/A (N/A)20,000 .. 50,0000%00:00 (00:00)
79 Codename: Panzers - Cold War May 6, 2009 $14.99N/A (N/A)20,000 .. 50,0000%00:00 (00:00)
80 Supreme Ruler 2020 Gold Jul 9, 2009 $9.99N/A (N/A/65%)20,000 .. 50,0000%00:00 (00:00)
81 Space Trader: Merchant Marine Oct 23, 2008 $4.99N/A (N/A)100,000 .. 200,0000%00:00 (00:00)
82 Patrician III Nov 18, 2010 $4.99N/A (N/A/75%)100,000 .. 200,0000%00:00 (00:00)
83 Prison Tycoon 3: Lockdown Jan 29, 2008 $9.99N/A (N/A)20,000 .. 50,0000%00:00 (00:00)
84 Dwarfs!? May 4, 2011 $9.99N/A (N/A)200,000 .. 500,0000%00:00 (00:00)
85 Heroes of Might & Magic V: Hammers of Fate Oct 10, 2008 $9.99N/A (N/A/66%)50,000 .. 100,0000%00:00 (00:00)
86 The Guild Gold Edition Nov 18, 2002 $9.99N/A (N/A/82%)100,000 .. 200,0000%00:00 (00:00)
87 Harvest: Massive Encounter Jan 23, 2009 $7.99N/A (N/A)20,000 .. 50,0000%00:00 (00:00)
88 Sacraboar Nov 6, 2009 $2.99N/A (N/A)20,000 .. 50,0000%00:00 (00:00)
89 Red Faction II Aug 6, 2009 $9.99N/A (N/A/64%)200,000 .. 500,0000%00:00 (00:00)
90 Company of Heroes: Opposing Fronts Sep 27, 2007 $19.99N/A (N/A/87%)2,000,000 .. 5,000,0000%00:00 (00:00)
91 Imperium Romanum Gold Edition Nov 25, 2008 $9.99N/A (N/A/63%)100,000 .. 200,0000%00:00 (00:00)
92 Supreme Commander Feb 20, 2007 $12.99N/A (N/A/86%)1,000,000 .. 2,000,0000%00:00 (00:00)
93 Europa Universalis: Rome - Gold Edition Dec 18, 2008 $9.99N/A (N/A/79%)50,000 .. 100,0000%00:00 (00:00)
94 Desperados 2: Cooper's Revenge Mar 12, 2008 $9.99N/A (N/A/66%)50,000 .. 100,0000%00:00 (00:00)
95 Grand Ages: Rome Mar 20, 2009 $9.99N/A (N/A/72%)200,000 .. 500,0000%00:00 (00:00)
96 Age of Wonders II: The Wizard's Throne Oct 2010 $9.99N/A (N/A/86%)50,000 .. 100,0000%00:00 (00:00)
97 American Conquest: Fight Back Aug 26, 2011 $4.99N/A (N/A/66%)50,000 .. 100,0000%00:00 (00:00)
98 Swords and Soldiers HD Dec 2, 2010 $9.99N/A (N/A)200,000 .. 500,0000%00:00 (00:00)
99 Dungeons - The Dark Lord Sep 27, 2011 $19.99N/A (N/A/72%)100,000 .. 200,0000%00:00 (00:00)
100 Theatre of War 3: Korea Mar 24, 2011 $6.99N/A (N/A/49%)50,000 .. 100,0000%00:00 (00:00)
101 Disciples III - Resurrection Oct 11, 2011 $14.99N/A (N/A/63%)100,000 .. 200,0000%00:00 (00:00)
102 Fate of the World Feb 28, 2011 $9.99N/A (N/A/70%)50,000 .. 100,0000%00:00 (00:00)
103 Men of War: Condemned Heroes Apr 12, 2012 $7.99N/A (N/A/57%)100,000 .. 200,0000%00:00 (00:00)
104 Guardians of Graxia Nov 1, 2010 N/AN/A (N/A)50,000 .. 100,0000%00:00 (00:00)
105 Gratuitous Tank Battles May 17, 2012 $9.99N/A (N/A/69%)50,000 .. 100,0000%00:00 (00:00)
106 Hydrophobia: Prophecy May 9, 2011 $4.99N/A (N/A/64%)200,000 .. 500,0000%00:00 (00:00)
107 Robin Hood: The Legend of Sherwood Nov 1, 2002 $7.99N/A (N/A/80%)100,000 .. 200,0000%00:00 (00:00)
108 Demolition Inc. Sep 19, 2011 $5.99N/A (N/A)50,000 .. 100,0000%00:00 (00:00)
109 Dungeons Feb 10, 2011 $9.99N/A (N/A/65%)200,000 .. 500,0000%00:00 (00:00)
110 Cossacks II: Napoleonic Wars Aug 26, 2011 $4.99N/A (N/A/73%)50,000 .. 100,0000%00:00 (00:00)
111 Age of Wonders Oct 2010 $5.99N/A (N/A)100,000 .. 200,0000%00:00 (00:00)
112 American Conquest Aug 26, 2011 $4.99N/A (N/A/76%)100,000 .. 200,0000%00:00 (00:00)

Tags over time:

Access restricted.

This feature is only available to users with special access rights. Sorry.

If you want to proceed, you need to register or log in first and then back Steam Spy on Patreon. Look for Indie or Pro pledge.

Don't forget to use the same email as on Steam Spy!

Owners of this game also own:

Access restricted.

This feature is only available to users with special access rights. Sorry.

If you want to proceed, you need to register or log in first and then back Steam Spy on Patreon. Look for Indie or Pro pledge.

Don't forget to use the same email as on Steam Spy!

Playtime distribution:

Access restricted.

This feature is only available to users with special access rights. Sorry.

If you want to proceed, you need to register or log in first and then back Steam Spy on Patreon. Look for Indie or Pro pledge.

Don't forget to use the same email as on Steam Spy!

Playtime (2 weeks):

Access restricted.

This feature is only available to users with special access rights. Sorry.

If you want to proceed, you need to register or log in first and then back Steam Spy on Patreon. Look for Indie or Pro pledge.

Don't forget to use the same email as on Steam Spy!

User reviews:

Login required.

Please register or log in to see this information.